sensor_id;sensor_type;location;lat;lon;timestamp;temperature;humidity
60353;DHT22;46196;52.970;6.954;2023-05-10T00:00:00;14.00;99.90
60353;DHT22;46196;52.970;6.954;2023-05-10T00:02:25;14.00;99.90
60353;DHT22;46196;52.970;6.954;2023-05-10T00:04:52;14.00;99.90
60353;DHT22;46196;52.970;6.954;2023-05-10T00:07:17;14.00;99.90
60353;DHT22;46196;52.970;6.954;2023-05-10T00:09:43;14.50;99.90
60353;DHT22;46196;52.970;6.954;2023-05-10T00:12:09;14.00;99.90
60353;DHT22;46196;52.970;6.954;2023-05-10T00:14:35;14.00;99.90
60353;DHT22;46196;52.970;6.954;2023-05-10T00:17:01;13.40;99.90
60353;DHT22;46196;52.970;6.954;2023-05-10T00:19:26;14.00;99.90
60353;DHT22;46196;52.970;6.954;2023-05-10T00:21:52;13.90;99.90
60353;DHT22;46196;52.970;6.954;2023-05-10T00:24:17;13.80;99.90
60353;DHT22;46196;52.970;6.954;2023-05-10T00:26:43;13.70;99.90
60353;DHT22;46196;52.970;6.954;2023-05-10T00:29:09;13.60;99.90
60353;DHT22;46196;52.970;6.954;2023-05-10T00:31:35;13.50;99.90
60353;DHT22;46196;52.970;6.954;2023-05-10T00:34:00;13.50;99.90
60353;DHT22;46196;52.970;6.954;2023-05-10T00:36:26;14.30;99.90
60353;DHT22;46196;52.970;6.954;2023-05-10T00:38:53;14.00;99.90
60353;DHT22;46196;52.970;6.954;2023-05-10T00:41:19;13.40;99.90
60353;DHT22;46196;52.970;6.954;2023-05-10T00:43:46;13.40;99.90
60353;DHT22;46196;52.970;6.954;2023-05-10T00:46:13;14.20;99.90
60353;DHT22;46196;52.970;6.954;2023-05-10T00:48:39;13.40;99.90
60353;DHT22;46196;52.970;6.954;2023-05-10T00:51:05;13.20;99.90
60353;DHT22;46196;52.970;6.954;2023-05-10T00:53:31;14.30;99.90
60353;DHT22;46196;52.970;6.954;2023-05-10T00:55:59;13.10;99.90
60353;DHT22;46196;52.970;6.954;2023-05-10T00:58:25;13.10;99.90
60353;DHT22;46196;52.970;6.954;2023-05-10T01:00:55;13.10;99.90
60353;DHT22;46196;52.970;6.954;2023-05-10T01:03:22;12.40;99.90
60353;DHT22;46196;52.970;6.954;2023-05-10T01:05:48;12.90;99.90
60353;DHT22;46196;52.970;6.954;2023-05-10T01:08:13;12.10;99.90
60353;DHT22;46196;52.970;6.954;2023-05-10T01:10:40;12.50;99.90
60353;DHT22;46196;52.970;6.954;2023-05-10T01:13:06;14.00;99.90
60353;DHT22;46196;52.970;6.954;2023-05-10T01:15:32;13.90;99.90
60353;DHT22;46196;52.970;6.954;2023-05-10T01:17:58;12.90;99.90
60353;DHT22;46196;52.970;6.954;2023-05-10T01:20:25;13.00;99.90
60353;DHT22;46196;52.970;6.954;2023-05-10T01:26:39;12.20;99.90
60353;DHT22;46196;52.970;6.954;2023-05-10T01:34:16;12.90;99.90
60353;DHT22;46196;52.970;6.954;2023-05-10T01:36:48;12.90;99.90
60353;DHT22;46196;52.970;6.954;2023-05-10T01:39:32;12.90;99.90
60353;DHT22;46196;52.970;6.954;2023-05-10T01:42:09;13.30;99.90
60353;DHT22;46196;52.970;6.954;2023-05-10T01:47:39;12.90;99.90
60353;DHT22;46196;52.970;6.954;2023-05-10T01:50:16;13.00;99.90
60353;DHT22;46196;52.970;6.954;2023-05-10T01:52:46;13.00;99.90
60353;DHT22;46196;52.970;6.954;2023-05-10T01:55:15;13.00;99.90
60353;DHT22;46196;52.970;6.954;2023-05-10T01:57:44;13.00;99.90
60353;DHT22;46196;52.970;6.954;2023-05-10T02:00:12;13.00;99.90
60353;DHT22;46196;52.970;6.954;2023-05-10T02:02:45;13.00;99.90
60353;DHT22;46196;52.970;6.954;2023-05-10T02:05:13;14.10;99.90
60353;DHT22;46196;52.970;6.954;2023-05-10T02:07:41;13.00;99.90
60353;DHT22;46196;52.970;6.954;2023-05-10T02:10:09;13.00;99.90
60353;DHT22;46196;52.970;6.954;2023-05-10T02:12:37;13.00;99.90
60353;DHT22;46196;52.970;6.954;2023-05-10T02:15:07;13.00;99.90
60353;DHT22;46196;52.970;6.954;2023-05-10T02:17:34;13.00;99.90
60353;DHT22;46196;52.970;6.954;2023-05-10T02:20:02;12.90;99.90
60353;DHT22;46196;52.970;6.954;2023-05-10T02:22:29;13.00;99.90
60353;DHT22;46196;52.970;6.954;2023-05-10T02:24:58;13.60;99.90
60353;DHT22;46196;52.970;6.954;2023-05-10T02:27:25;12.90;99.90
60353;DHT22;46196;52.970;6.954;2023-05-10T02:29:53;12.90;99.90
60353;DHT22;46196;52.970;6.954;2023-05-10T02:32:21;12.90;99.90
60353;DHT22;46196;52.970;6.954;2023-05-10T02:34:48;13.90;99.90
60353;DHT22;46196;52.970;6.954;2023-05-10T02:37:19;12.90;99.90
60353;DHT22;46196;52.970;6.954;2023-05-10T02:39:49;12.90;99.90
60353;DHT22;46196;52.970;6.954;2023-05-10T02:42:18;12.90;99.90
60353;DHT22;46196;52.970;6.954;2023-05-10T02:44:50;12.90;99.90
60353;DHT22;46196;52.970;6.954;2023-05-10T02:47:17;12.90;99.90
60353;DHT22;46196;52.970;6.954;2023-05-10T02:49:43;12.90;99.90
60353;DHT22;46196;52.970;6.954;2023-05-10T02:52:09;12.80;99.90
60353;DHT22;46196;52.970;6.954;2023-05-10T02:54:45;12.80;99.90
60353;DHT22;46196;52.970;6.954;2023-05-10T02:57:15;12.80;99.90
60353;DHT22;46196;52.970;6.954;2023-05-10T02:59:41;12.80;99.90
60353;DHT22;46196;52.970;6.954;2023-05-10T03:02:09;12.80;99.90
60353;DHT22;46196;52.970;6.954;2023-05-10T03:04:35;12.80;99.90
60353;DHT22;46196;52.970;6.954;2023-05-10T03:07:01;12.80;99.90
60353;DHT22;46196;52.970;6.954;2023-05-10T03:09:27;12.80;99.90
60353;DHT22;46196;52.970;6.954;2023-05-10T03:14:53;12.80;99.90
60353;DHT22;46196;52.970;6.954;2023-05-10T03:18:12;12.80;99.90
60353;DHT22;46196;52.970;6.954;2023-05-10T03:20:20;12.80;99.90
60353;DHT22;46196;52.970;6.954;2023-05-10T03:22:55;12.80;99.90
60353;DHT22;46196;52.970;6.954;2023-05-10T03:25:21;12.80;99.90
60353;DHT22;46196;52.970;6.954;2023-05-10T03:27:47;12.80;99.90
60353;DHT22;46196;52.970;6.954;2023-05-10T03:30:14;13.00;99.90
60353;DHT22;46196;52.970;6.954;2023-05-10T03:32:40;12.80;99.90
60353;DHT22;46196;52.970;6.954;2023-05-10T03:35:09;12.80;99.90
60353;DHT22;46196;52.970;6.954;2023-05-10T03:37:35;12.80;99.90
60353;DHT22;46196;52.970;6.954;2023-05-10T03:40:02;12.90;99.90
60353;DHT22;46196;52.970;6.954;2023-05-10T03:42:27;12.90;99.90
60353;DHT22;46196;52.970;6.954;2023-05-10T03:44:53;12.80;99.90
60353;DHT22;46196;52.970;6.954;2023-05-10T03:47:19;12.10;99.90
60353;DHT22;46196;52.970;6.954;2023-05-10T03:49:45;12.80;99.90
60353;DHT22;46196;52.970;6.954;2023-05-10T03:52:11;12.80;99.90
60353;DHT22;46196;52.970;6.954;2023-05-10T03:54:37;11.40;99.90
60353;DHT22;46196;52.970;6.954;2023-05-10T03:57:03;12.70;99.90
60353;DHT22;46196;52.970;6.954;2023-05-10T03:59:29;12.80;99.90
60353;DHT22;46196;52.970;6.954;2023-05-10T04:01:55;12.40;99.90
60353;DHT22;46196;52.970;6.954;2023-05-10T04:04:21;12.70;99.90
60353;DHT22;46196;52.970;6.954;2023-05-10T04:06:48;12.80;99.90
60353;DHT22;46196;52.970;6.954;2023-05-10T04:09:14;12.70;99.90
60353;DHT22;46196;52.970;6.954;2023-05-10T04:11:40;12.80;99.90
60353;DHT22;46196;52.970;6.954;2023-05-10T04:14:06;12.80;99.90
60353;DHT22;46196;52.970;6.954;2023-05-10T04:16:31;12.80;99.90
60353;DHT22;46196;52.970;6.954;2023-05-10T04:18:57;12.80;99.90
60353;DHT22;46196;52.970;6.954;2023-05-10T04:21:22;12.80;99.90
60353;DHT22;46196;52.970;6.954;2023-05-10T04:23:48;12.30;99.90
60353;DHT22;46196;52.970;6.954;2023-05-10T04:26:14;12.80;99.90
60353;DHT22;46196;52.970;6.954;2023-05-10T04:28:40;12.80;99.90
60353;DHT22;46196;52.970;6.954;2023-05-10T04:31:07;12.80;99.90
60353;DHT22;46196;52.970;6.954;2023-05-10T04:33:33;12.80;99.90
60353;DHT22;46196;52.970;6.954;2023-05-10T04:35:59;12.80;99.90
60353;DHT22;46196;52.970;6.954;2023-05-10T04:38:25;12.80;99.90
60353;DHT22;46196;52.970;6.954;2023-05-10T04:40:51;12.80;99.90
60353;DHT22;46196;52.970;6.954;2023-05-10T04:43:16;12.80;99.90
60353;DHT22;46196;52.970;6.954;2023-05-10T04:45:42;11.60;99.90
60353;DHT22;46196;52.970;6.954;2023-05-10T04:48:08;12.80;99.90
60353;DHT22;46196;52.970;6.954;2023-05-10T04:50:33;11.60;99.90
60353;DHT22;46196;52.970;6.954;2023-05-10T04:52:59;12.50;99.90
60353;DHT22;46196;52.970;6.954;2023-05-10T04:55:25;12.80;99.90
60353;DHT22;46196;52.970;6.954;2023-05-10T04:57:51;13.70;99.90
60353;DHT22;46196;52.970;6.954;2023-05-10T05:00:17;12.70;99.90
60353;DHT22;46196;52.970;6.954;2023-05-10T05:02:44;12.80;99.90
60353;DHT22;46196;52.970;6.954;2023-05-10T05:05:11;12.80;99.90
60353;DHT22;46196;52.970;6.954;2023-05-10T05:07:38;13.70;99.90
60353;DHT22;46196;52.970;6.954;2023-05-10T05:10:05;12.50;99.90
60353;DHT22;46196;52.970;6.954;2023-05-10T05:12:31;12.70;99.90
60353;DHT22;46196;52.970;6.954;2023-05-10T05:14:57;12.70;99.90
60353;DHT22;46196;52.970;6.954;2023-05-10T05:17:22;13.90;99.90
60353;DHT22;46196;52.970;6.954;2023-05-10T05:19:48;13.50;99.90
60353;DHT22;46196;52.970;6.954;2023-05-10T05:22:14;12.70;99.90
60353;DHT22;46196;52.970;6.954;2023-05-10T05:24:40;12.80;99.90
60353;DHT22;46196;52.970;6.954;2023-05-10T05:27:06;12.70;99.90
60353;DHT22;46196;52.970;6.954;2023-05-10T05:29:31;13.30;99.90
60353;DHT22;46196;52.970;6.954;2023-05-10T05:31:57;12.70;99.90
60353;DHT22;46196;52.970;6.954;2023-05-10T05:34:23;12.80;99.90
60353;DHT22;46196;52.970;6.954;2023-05-10T05:36:49;12.80;99.90
60353;DHT22;46196;52.970;6.954;2023-05-10T05:39:15;13.00;99.90
60353;DHT22;46196;52.970;6.954;2023-05-10T05:41:41;14.40;99.90
60353;DHT22;46196;52.970;6.954;2023-05-10T05:44:08;13.20;99.90
60353;DHT22;46196;52.970;6.954;2023-05-10T05:46:33;12.80;99.90
60353;DHT22;46196;52.970;6.954;2023-05-10T05:49:00;12.80;99.90
60353;DHT22;46196;52.970;6.954;2023-05-10T05:51:25;11.80;99.90
60353;DHT22;46196;52.970;6.954;2023-05-10T05:53:51;13.30;99.90
60353;DHT22;46196;52.970;6.954;2023-05-10T05:56:17;12.60;99.90
60353;DHT22;46196;52.970;6.954;2023-05-10T05:58:52;12.70;99.90
60353;DHT22;46196;52.970;6.954;2023-05-10T06:01:18;12.80;99.90
60353;DHT22;46196;52.970;6.954;2023-05-10T06:03:43;12.80;99.90
60353;DHT22;46196;52.970;6.954;2023-05-10T06:06:09;12.80;99.90
60353;DHT22;46196;52.970;6.954;2023-05-10T06:08:35;12.50;99.90
60353;DHT22;46196;52.970;6.954;2023-05-10T06:11:01;12.70;99.90
60353;DHT22;46196;52.970;6.954;2023-05-10T06:13:26;13.60;99.90
60353;DHT22;46196;52.970;6.954;2023-05-10T06:15:58;12.60;99.90
60353;DHT22;46196;52.970;6.954;2023-05-10T06:18:24;12.60;99.90
60353;DHT22;46196;52.970;6.954;2023-05-10T06:20:50;12.80;99.90
60353;DHT22;46196;52.970;6.954;2023-05-10T06:23:15;13.20;99.90
60353;DHT22;46196;52.970;6.954;2023-05-10T06:25:41;13.10;99.90
60353;DHT22;46196;52.970;6.954;2023-05-10T06:28:07;13.20;99.90
60353;DHT22;46196;52.970;6.954;2023-05-10T06:30:32;12.90;99.90
60353;DHT22;46196;52.970;6.954;2023-05-10T06:32:58;13.20;99.90
60353;DHT22;46196;52.970;6.954;2023-05-10T06:35:24;12.80;99.90
60353;DHT22;46196;52.970;6.954;2023-05-10T06:37:50;12.30;99.90
60353;DHT22;46196;52.970;6.954;2023-05-10T06:40:17;13.10;99.90
60353;DHT22;46196;52.970;6.954;2023-05-10T06:42:43;12.80;99.90
60353;DHT22;46196;52.970;6.954;2023-05-10T06:45:10;13.20;99.90
60353;DHT22;46196;52.970;6.954;2023-05-10T06:47:36;12.80;99.90
60353;DHT22;46196;52.970;6.954;2023-05-10T06:50:02;12.80;99.90
60353;DHT22;46196;52.970;6.954;2023-05-10T06:52:28;12.80;99.90
60353;DHT22;46196;52.970;6.954;2023-05-10T06:54:54;12.70;99.90
60353;DHT22;46196;52.970;6.954;2023-05-10T06:57:19;12.70;99.90
60353;DHT22;46196;52.970;6.954;2023-05-10T06:59:46;12.40;99.90
60353;DHT22;46196;52.970;6.954;2023-05-10T07:02:11;12.80;99.90
60353;DHT22;46196;52.970;6.954;2023-05-10T07:04:37;12.80;99.90
60353;DHT22;46196;52.970;6.954;2023-05-10T07:07:03;12.80;99.90
60353;DHT22;46196;52.970;6.954;2023-05-10T07:11:55;12.80;99.90
60353;DHT22;46196;52.970;6.954;2023-05-10T07:14:22;12.80;99.90
60353;DHT22;46196;52.970;6.954;2023-05-10T07:16:48;12.80;99.90
60353;DHT22;46196;52.970;6.954;2023-05-10T07:19:14;12.80;99.90
60353;DHT22;46196;52.970;6.954;2023-05-10T07:21:40;12.80;99.90
60353;DHT22;46196;52.970;6.954;2023-05-10T07:24:09;12.80;99.90
60353;DHT22;46196;52.970;6.954;2023-05-10T07:26:34;12.90;99.90
60353;DHT22;46196;52.970;6.954;2023-05-10T07:29:00;12.80;99.90
60353;DHT22;46196;52.970;6.954;2023-05-10T07:31:26;12.90;99.90
60353;DHT22;46196;52.970;6.954;2023-05-10T07:33:52;12.90;99.90
60353;DHT22;46196;52.970;6.954;2023-05-10T07:36:17;12.90;99.90
60353;DHT22;46196;52.970;6.954;2023-05-10T07:38:43;12.90;99.90
60353;DHT22;46196;52.970;6.954;2023-05-10T07:41:09;12.90;99.90
60353;DHT22;46196;52.970;6.954;2023-05-10T07:43:35;12.90;99.90
60353;DHT22;46196;52.970;6.954;2023-05-10T07:46:00;12.90;99.90
60353;DHT22;46196;52.970;6.954;2023-05-10T07:48:26;12.90;99.90
60353;DHT22;46196;52.970;6.954;2023-05-10T07:50:52;12.90;99.90
60353;DHT22;46196;52.970;6.954;2023-05-10T07:53:17;12.90;99.90
60353;DHT22;46196;52.970;6.954;2023-05-10T07:55:44;13.00;99.90
60353;DHT22;46196;52.970;6.954;2023-05-10T07:58:15;12.90;99.90
60353;DHT22;46196;52.970;6.954;2023-05-10T08:00:40;12.60;99.90
60353;DHT22;46196;52.970;6.954;2023-05-10T08:03:06;13.00;99.90
60353;DHT22;46196;52.970;6.954;2023-05-10T08:05:32;13.10;99.90
60353;DHT22;46196;52.970;6.954;2023-05-10T08:07:57;13.10;99.90
60353;DHT22;46196;52.970;6.954;2023-05-10T08:10:24;13.10;99.90
60353;DHT22;46196;52.970;6.954;2023-05-10T08:12:50;13.10;99.90
60353;DHT22;46196;52.970;6.954;2023-05-10T08:15:16;13.20;99.90
60353;DHT22;46196;52.970;6.954;2023-05-10T08:17:42;13.20;99.90
60353;DHT22;46196;52.970;6.954;2023-05-10T08:20:09;13.20;99.90
60353;DHT22;46196;52.970;6.954;2023-05-10T08:22:35;13.20;99.90
60353;DHT22;46196;52.970;6.954;2023-05-10T08:25:01;13.30;99.90
60353;DHT22;46196;52.970;6.954;2023-05-10T08:27:26;13.30;99.90
60353;DHT22;46196;52.970;6.954;2023-05-10T08:29:52;13.30;99.90
60353;DHT22;46196;52.970;6.954;2023-05-10T08:32:18;13.40;99.90
60353;DHT22;46196;52.970;6.954;2023-05-10T08:34:43;13.40;99.90
60353;DHT22;46196;52.970;6.954;2023-05-10T08:37:09;13.50;99.90
60353;DHT22;46196;52.970;6.954;2023-05-10T08:39:38;13.60;99.90
60353;DHT22;46196;52.970;6.954;2023-05-10T08:42:05;12.60;99.90
60353;DHT22;46196;52.970;6.954;2023-05-10T08:44:32;13.50;99.90
60353;DHT22;46196;52.970;6.954;2023-05-10T08:46:59;14.20;99.90
60353;DHT22;46196;52.970;6.954;2023-05-10T08:49:31;13.50;99.90
60353;DHT22;46196;52.970;6.954;2023-05-10T08:51:57;13.50;99.90
60353;DHT22;46196;52.970;6.954;2023-05-10T08:54:25;13.80;99.90
60353;DHT22;46196;52.970;6.954;2023-05-10T08:56:51;13.60;99.90
60353;DHT22;46196;52.970;6.954;2023-05-10T08:59:17;13.50;99.90
60353;DHT22;46196;52.970;6.954;2023-05-10T09:01:44;13.60;99.90
60353;DHT22;46196;52.970;6.954;2023-05-10T09:04:11;13.60;99.90
60353;DHT22;46196;52.970;6.954;2023-05-10T09:06:37;13.60;99.90
60353;DHT22;46196;52.970;6.954;2023-05-10T09:09:04;13.70;99.90
60353;DHT22;46196;52.970;6.954;2023-05-10T09:11:30;13.70;99.90
60353;DHT22;46196;52.970;6.954;2023-05-10T09:13:56;13.70;99.90
60353;DHT22;46196;52.970;6.954;2023-05-10T09:16:23;13.70;99.90
60353;DHT22;46196;52.970;6.954;2023-05-10T09:18:49;15.10;99.90
60353;DHT22;46196;52.970;6.954;2023-05-10T09:21:15;13.70;99.90
60353;DHT22;46196;52.970;6.954;2023-05-10T09:23:44;14.70;99.90
60353;DHT22;46196;52.970;6.954;2023-05-10T09:26:12;13.70;99.90
60353;DHT22;46196;52.970;6.954;2023-05-10T09:28:55;14.20;99.90
60353;DHT22;46196;52.970;6.954;2023-05-10T09:31:21;13.60;99.90
60353;DHT22;46196;52.970;6.954;2023-05-10T09:33:48;13.70;99.90
60353;DHT22;46196;52.970;6.954;2023-05-10T09:36:15;13.80;99.90
60353;DHT22;46196;52.970;6.954;2023-05-10T09:38:52;13.60;99.90
60353;DHT22;46196;52.970;6.954;2023-05-10T09:41:18;14.10;99.90
60353;DHT22;46196;52.970;6.954;2023-05-10T09:43:44;14.10;99.90
60353;DHT22;46196;52.970;6.954;2023-05-10T09:46:11;14.20;99.90
60353;DHT22;46196;52.970;6.954;2023-05-10T09:48:45;14.30;99.90
60353;DHT22;46196;52.970;6.954;2023-05-10T09:51:24;14.30;99.90
60353;DHT22;46196;52.970;6.954;2023-05-10T09:54:15;14.50;99.90
60353;DHT22;46196;52.970;6.954;2023-05-10T09:56:41;14.50;99.90
60353;DHT22;46196;52.970;6.954;2023-05-10T09:59:11;14.80;99.90
60353;DHT22;46196;52.970;6.954;2023-05-10T10:01:38;14.80;99.90
60353;DHT22;46196;52.970;6.954;2023-05-10T10:04:05;14.90;99.90
60353;DHT22;46196;52.970;6.954;2023-05-10T10:06:41;15.10;99.90
60353;DHT22;46196;52.970;6.954;2023-05-10T10:09:07;15.00;99.90
60353;DHT22;46196;52.970;6.954;2023-05-10T10:11:38;15.10;99.90
60353;DHT22;46196;52.970;6.954;2023-05-10T10:14:04;15.20;99.90
60353;DHT22;46196;52.970;6.954;2023-05-10T10:16:31;15.30;99.90
60353;DHT22;46196;52.970;6.954;2023-05-10T10:18:57;15.50;99.90
60353;DHT22;46196;52.970;6.954;2023-05-10T10:21:23;15.60;99.90
60353;DHT22;46196;52.970;6.954;2023-05-10T10:23:49;15.60;99.90
60353;DHT22;46196;52.970;6.954;2023-05-10T10:26:17;15.80;99.90
60353;DHT22;46196;52.970;6.954;2023-05-10T10:34:31;15.80;99.90
60353;DHT22;46196;52.970;6.954;2023-05-10T10:36:57;15.80;99.90
60353;DHT22;46196;52.970;6.954;2023-05-10T10:39:26;15.80;99.90
60353;DHT22;46196;52.970;6.954;2023-05-10T10:41:57;15.70;99.90
60353;DHT22;46196;52.970;6.954;2023-05-10T10:47:05;15.20;99.90
60353;DHT22;46196;52.970;6.954;2023-05-10T10:49:32;15.10;99.90
60353;DHT22;46196;52.970;6.954;2023-05-10T10:55:05;15.00;99.90
60353;DHT22;46196;52.970;6.954;2023-05-10T11:00:23;15.00;99.90
60353;DHT22;46196;52.970;6.954;2023-05-10T11:03:10;15.10;99.90
60353;DHT22;46196;52.970;6.954;2023-05-10T11:08:18;15.10;99.90
60353;DHT22;46196;52.970;6.954;2023-05-10T11:10:54;15.00;99.90
60353;DHT22;46196;52.970;6.954;2023-05-10T11:13:44;14.90;99.90
60353;DHT22;46196;52.970;6.954;2023-05-10T11:16:11;14.80;99.90
60353;DHT22;46196;52.970;6.954;2023-05-10T11:18:37;14.70;99.90
60353;DHT22;46196;52.970;6.954;2023-05-10T11:21:03;16.80;99.90
60353;DHT22;46196;52.970;6.954;2023-05-10T11:23:49;14.60;99.90
60353;DHT22;46196;52.970;6.954;2023-05-10T11:26:15;14.50;99.90
60353;DHT22;46196;52.970;6.954;2023-05-10T11:28:47;14.30;99.90
60353;DHT22;46196;52.970;6.954;2023-05-10T11:31:19;14.40;99.90
60353;DHT22;46196;52.970;6.954;2023-05-10T11:33:50;14.80;99.90
60353;DHT22;46196;52.970;6.954;2023-05-10T11:36:18;14.50;99.90
60353;DHT22;46196;52.970;6.954;2023-05-10T11:38:44;14.40;99.90
60353;DHT22;46196;52.970;6.954;2023-05-10T11:41:11;14.60;99.90
60353;DHT22;46196;52.970;6.954;2023-05-10T11:43:41;14.60;99.90
60353;DHT22;46196;52.970;6.954;2023-05-10T11:46:12;14.60;99.90
60353;DHT22;46196;52.970;6.954;2023-05-10T11:48:42;14.70;99.90
60353;DHT22;46196;52.970;6.954;2023-05-10T11:51:09;14.70;99.90
60353;DHT22;46196;52.970;6.954;2023-05-10T11:53:35;14.90;99.90
60353;DHT22;46196;52.970;6.954;2023-05-10T11:56:08;14.90;99.90
60353;DHT22;46196;52.970;6.954;2023-05-10T11:58:35;15.00;99.90
60353;DHT22;46196;52.970;6.954;2023-05-10T12:01:02;15.10;99.90
60353;DHT22;46196;52.970;6.954;2023-05-10T12:03:28;15.20;99.90
60353;DHT22;46196;52.970;6.954;2023-05-10T12:05:55;15.30;99.90
60353;DHT22;46196;52.970;6.954;2023-05-10T12:08:26;15.30;99.90
60353;DHT22;46196;52.970;6.954;2023-05-10T12:10:52;15.40;99.90
60353;DHT22;46196;52.970;6.954;2023-05-10T12:13:19;15.40;99.90
60353;DHT22;46196;52.970;6.954;2023-05-10T12:15:46;15.30;99.90
60353;DHT22;46196;52.970;6.954;2023-05-10T12:18:13;15.50;99.90
60353;DHT22;46196;52.970;6.954;2023-05-10T12:20:40;15.40;99.90
60353;DHT22;46196;52.970;6.954;2023-05-10T12:23:08;15.50;99.90
60353;DHT22;46196;52.970;6.954;2023-05-10T12:25:35;15.50;99.90
60353;DHT22;46196;52.970;6.954;2023-05-10T12:28:06;15.40;99.90
60353;DHT22;46196;52.970;6.954;2023-05-10T12:30:34;15.80;99.90
60353;DHT22;46196;52.970;6.954;2023-05-10T12:35:29;15.50;99.90
60353;DHT22;46196;52.970;6.954;2023-05-10T12:37:55;15.60;99.90
60353;DHT22;46196;52.970;6.954;2023-05-10T12:40:20;15.60;99.90
60353;DHT22;46196;52.970;6.954;2023-05-10T12:42:46;15.60;99.90
60353;DHT22;46196;52.970;6.954;2023-05-10T12:45:12;15.60;99.90
60353;DHT22;46196;52.970;6.954;2023-05-10T12:47:39;15.60;99.90
60353;DHT22;46196;52.970;6.954;2023-05-10T12:50:05;15.60;99.90
60353;DHT22;46196;52.970;6.954;2023-05-10T12:52:32;15.60;99.90
60353;DHT22;46196;52.970;6.954;2023-05-10T12:54:58;15.60;99.90
60353;DHT22;46196;52.970;6.954;2023-05-10T12:57:25;15.60;99.90
60353;DHT22;46196;52.970;6.954;2023-05-10T12:59:50;15.60;99.90
60353;DHT22;46196;52.970;6.954;2023-05-10T13:02:16;15.50;99.90
60353;DHT22;46196;52.970;6.954;2023-05-10T13:04:44;15.40;99.90
60353;DHT22;46196;52.970;6.954;2023-05-10T13:07:10;15.40;99.90
60353;DHT22;46196;52.970;6.954;2023-05-10T13:09:36;15.20;99.90
60353;DHT22;46196;52.970;6.954;2023-05-10T13:12:02;15.20;99.90
60353;DHT22;46196;52.970;6.954;2023-05-10T13:14:28;15.20;99.90
60353;DHT22;46196;52.970;6.954;2023-05-10T13:16:54;15.60;99.90
60353;DHT22;46196;52.970;6.954;2023-05-10T13:19:20;15.30;99.90
60353;DHT22;46196;52.970;6.954;2023-05-10T13:21:46;15.20;99.90
60353;DHT22;46196;52.970;6.954;2023-05-10T13:24:12;15.30;99.90
60353;DHT22;46196;52.970;6.954;2023-05-10T13:26:40;15.30;99.90
60353;DHT22;46196;52.970;6.954;2023-05-10T13:29:06;15.50;99.90
60353;DHT22;46196;52.970;6.954;2023-05-10T13:31:33;16.50;99.90
60353;DHT22;46196;52.970;6.954;2023-05-10T13:33:58;15.70;99.90
60353;DHT22;46196;52.970;6.954;2023-05-10T13:36:24;15.90;99.90
60353;DHT22;46196;52.970;6.954;2023-05-10T13:38:50;15.90;99.90
60353;DHT22;46196;52.970;6.954;2023-05-10T13:41:15;16.10;99.90
60353;DHT22;46196;52.970;6.954;2023-05-10T13:43:41;15.70;99.90
60353;DHT22;46196;52.970;6.954;2023-05-10T13:46:06;16.20;99.90
60353;DHT22;46196;52.970;6.954;2023-05-10T13:48:32;16.20;99.90
60353;DHT22;46196;52.970;6.954;2023-05-10T13:50:58;16.20;99.90
60353;DHT22;46196;52.970;6.954;2023-05-10T13:53:23;16.20;99.90
60353;DHT22;46196;52.970;6.954;2023-05-10T13:55:49;16.30;99.90
60353;DHT22;46196;52.970;6.954;2023-05-10T13:58:15;16.20;99.90
60353;DHT22;46196;52.970;6.954;2023-05-10T14:00:40;16.30;99.90
60353;DHT22;46196;52.970;6.954;2023-05-10T14:03:06;16.30;99.90
60353;DHT22;46196;52.970;6.954;2023-05-10T14:05:35;16.20;99.90
60353;DHT22;46196;52.970;6.954;2023-05-10T14:08:00;16.20;99.90
60353;DHT22;46196;52.970;6.954;2023-05-10T14:10:26;16.30;99.90
60353;DHT22;46196;52.970;6.954;2023-05-10T14:12:51;16.20;99.90
60353;DHT22;46196;52.970;6.954;2023-05-10T14:15:17;16.20;99.90
60353;DHT22;46196;52.970;6.954;2023-05-10T14:17:43;16.20;99.90
60353;DHT22;46196;52.970;6.954;2023-05-10T14:20:10;16.20;99.90
60353;DHT22;46196;52.970;6.954;2023-05-10T14:22:36;16.10;99.90
60353;DHT22;46196;52.970;6.954;2023-05-10T14:25:01;16.00;99.90
60353;DHT22;46196;52.970;6.954;2023-05-10T14:27:27;14.50;99.90
60353;DHT22;46196;52.970;6.954;2023-05-10T14:29:53;15.80;99.90
60353;DHT22;46196;52.970;6.954;2023-05-10T14:32:19;15.70;99.90
60353;DHT22;46196;52.970;6.954;2023-05-10T14:34:45;15.70;99.90
60353;DHT22;46196;52.970;6.954;2023-05-10T14:37:12;15.60;99.90
60353;DHT22;46196;52.970;6.954;2023-05-10T14:39:38;15.60;99.90
60353;DHT22;46196;52.970;6.954;2023-05-10T14:42:05;15.60;99.90
60353;DHT22;46196;52.970;6.954;2023-05-10T14:44:30;15.60;99.90
60353;DHT22;46196;52.970;6.954;2023-05-10T14:46:56;15.70;99.90
60353;DHT22;46196;52.970;6.954;2023-05-10T14:49:22;15.70;99.90
60353;DHT22;46196;52.970;6.954;2023-05-10T14:51:50;15.70;99.90
60353;DHT22;46196;52.970;6.954;2023-05-10T14:54:16;15.70;99.90
60353;DHT22;46196;52.970;6.954;2023-05-10T14:56:42;15.70;99.90
60353;DHT22;46196;52.970;6.954;2023-05-10T14:59:08;15.70;99.90
60353;DHT22;46196;52.970;6.954;2023-05-10T15:01:35;15.70;99.90
60353;DHT22;46196;52.970;6.954;2023-05-10T15:04:03;15.80;99.90
60353;DHT22;46196;52.970;6.954;2023-05-10T15:06:33;15.80;99.90
60353;DHT22;46196;52.970;6.954;2023-05-10T15:09:01;15.80;99.90
60353;DHT22;46196;52.970;6.954;2023-05-10T15:11:28;15.90;99.90
60353;DHT22;46196;52.970;6.954;2023-05-10T15:13:54;15.90;99.90
60353;DHT22;46196;52.970;6.954;2023-05-10T15:16:20;15.80;99.90
60353;DHT22;46196;52.970;6.954;2023-05-10T15:18:45;15.80;99.90
60353;DHT22;46196;52.970;6.954;2023-05-10T15:21:11;15.80;99.90
60353;DHT22;46196;52.970;6.954;2023-05-10T15:23:37;15.90;99.90
60353;DHT22;46196;52.970;6.954;2023-05-10T15:26:03;15.80;99.90
60353;DHT22;46196;52.970;6.954;2023-05-10T15:28:28;15.50;99.90
60353;DHT22;46196;52.970;6.954;2023-05-10T15:30:55;15.90;99.90
60353;DHT22;46196;52.970;6.954;2023-05-10T15:33:21;15.90;99.90
60353;DHT22;46196;52.970;6.954;2023-05-10T15:35:47;15.80;99.90
60353;DHT22;46196;52.970;6.954;2023-05-10T15:38:13;15.90;99.90
60353;DHT22;46196;52.970;6.954;2023-05-10T15:40:38;15.70;99.90
60353;DHT22;46196;52.970;6.954;2023-05-10T15:43:05;15.90;99.90
60353;DHT22;46196;52.970;6.954;2023-05-10T15:45:31;16.70;99.90
60353;DHT22;46196;52.970;6.954;2023-05-10T15:47:58;16.00;99.90
60353;DHT22;46196;52.970;6.954;2023-05-10T15:50:24;16.10;99.90
60353;DHT22;46196;52.970;6.954;2023-05-10T15:52:50;16.10;99.90
60353;DHT22;46196;52.970;6.954;2023-05-10T15:55:16;15.60;99.90
60353;DHT22;46196;52.970;6.954;2023-05-10T15:57:43;15.30;99.90
60353;DHT22;46196;52.970;6.954;2023-05-10T16:00:10;15.90;99.90
60353;DHT22;46196;52.970;6.954;2023-05-10T16:02:36;16.10;99.90
60353;DHT22;46196;52.970;6.954;2023-05-10T16:05:03;16.20;99.90